createdAt,value
2018-09-21T00:01:30.296Z,16.50
2018-09-21T00:04:06.034Z,16.50
2018-09-21T00:06:33.252Z,16.40
2018-09-21T00:09:00.488Z,16.40
2018-09-21T00:11:27.690Z,16.30
2018-09-21T00:13:54.888Z,16.20
2018-09-21T00:16:22.351Z,16.10
2018-09-21T00:18:49.721Z,16.00
2018-09-21T00:21:16.971Z,16.00
2018-09-21T00:23:44.192Z,15.80
2018-09-21T00:26:11.399Z,15.80
2018-09-21T00:28:38.744Z,15.90
2018-09-21T00:31:07.624Z,15.90
2018-09-21T00:33:34.840Z,16.00
2018-09-21T00:36:02.025Z,16.00
2018-09-21T00:38:29.252Z,16.00
2018-09-21T00:40:57.496Z,15.90
2018-09-21T00:43:24.784Z,16.00
2018-09-21T00:45:52.061Z,16.00
2018-09-21T00:48:19.288Z,16.00
2018-09-21T00:50:46.496Z,16.00
2018-09-21T00:53:13.724Z,16.00
2018-09-21T00:55:40.924Z,16.00
2018-09-21T00:58:08.146Z,15.80
2018-09-21T01:00:36.087Z,15.80
2018-09-21T01:03:03.300Z,15.80
2018-09-21T01:05:30.553Z,15.70
2018-09-21T01:07:57.754Z,15.70
2018-09-21T01:10:24.975Z,15.70
2018-09-21T01:12:52.193Z,15.60
2018-09-21T01:15:19.425Z,15.60
2018-09-21T01:17:46.661Z,15.70
2018-09-21T01:20:13.901Z,15.70
2018-09-21T01:22:41.128Z,15.80
2018-09-21T01:25:08.340Z,15.80
2018-09-21T01:27:35.577Z,15.80
2018-09-21T01:30:03.118Z,15.80
2018-09-21T01:32:30.332Z,15.80
2018-09-21T01:34:57.639Z,15.70
2018-09-21T01:37:24.840Z,15.70
2018-09-21T01:39:52.060Z,15.70
2018-09-21T01:42:19.301Z,15.60
2018-09-21T01:44:46.533Z,15.70
2018-09-21T01:47:13.723Z,15.70
2018-09-21T01:49:40.940Z,15.70
2018-09-21T01:52:08.144Z,15.70
2018-09-21T01:54:35.378Z,15.70
2018-09-21T01:57:02.580Z,15.60
2018-09-21T01:59:31.304Z,15.60
2018-09-21T02:01:58.505Z,15.60
2018-09-21T02:04:31.428Z,15.60
2018-09-21T02:06:58.641Z,15.70
2018-09-21T02:09:25.904Z,15.60
2018-09-21T02:11:53.068Z,15.60
2018-09-21T02:14:20.284Z,15.60
2018-09-21T02:16:47.611Z,15.60
2018-09-21T02:19:14.831Z,15.60
2018-09-21T02:21:42.016Z,15.60
2018-09-21T02:24:09.260Z,15.60
2018-09-21T02:26:36.991Z,15.60
2018-09-21T02:29:04.458Z,15.60
2018-09-21T02:31:31.691Z,15.60
2018-09-21T02:33:58.923Z,15.60
2018-09-21T02:36:26.125Z,15.60
2018-09-21T02:38:53.332Z,15.60
2018-09-21T02:41:20.539Z,15.50
2018-09-21T02:43:47.752Z,15.60
2018-09-21T02:46:14.999Z,15.50
2018-09-21T02:48:42.315Z,15.50
2018-09-21T02:51:09.464Z,15.50
2018-09-21T02:53:37.230Z,15.50
2018-09-21T02:56:04.541Z,15.40
2018-09-21T02:58:31.764Z,15.40
2018-09-21T03:00:59.085Z,15.40
2018-09-21T03:03:26.240Z,15.50
2018-09-21T03:05:53.521Z,15.50
2018-09-21T03:08:20.732Z,15.40
2018-09-21T03:10:47.952Z,15.50
2018-09-21T03:13:15.160Z,15.40
2018-09-21T03:15:42.386Z,15.50
2018-09-21T03:18:09.572Z,15.60
2018-09-21T03:20:36.772Z,15.60
2018-09-21T03:23:04.016Z,15.50
2018-09-21T03:25:31.285Z,15.60
2018-09-21T03:27:58.483Z,15.60
2018-09-21T03:30:25.689Z,15.60
2018-09-21T03:32:52.897Z,15.60
2018-09-21T03:35:20.176Z,15.60
2018-09-21T03:37:47.328Z,15.50
2018-09-21T03:40:14.981Z,15.50
2018-09-21T03:42:42.201Z,15.50
2018-09-21T03:45:09.428Z,15.40
2018-09-21T03:47:36.686Z,15.40
2018-09-21T03:50:04.313Z,15.40
2018-09-21T03:52:31.604Z,15.40
2018-09-21T03:54:58.819Z,15.40
2018-09-21T03:57:26.003Z,15.40
2018-09-21T03:59:53.217Z,15.40
2018-09-21T04:02:20.761Z,15.40
2018-09-21T04:04:47.959Z,15.40
2018-09-21T04:07:15.157Z,15.40
2018-09-21T04:09:42.428Z,15.40
2018-09-21T04:12:09.637Z,15.30
2018-09-21T04:14:36.844Z,15.30
2018-09-21T04:17:05.400Z,15.30
2018-09-21T04:19:32.588Z,15.30
2018-09-21T04:21:59.780Z,15.20
2018-09-21T04:24:26.972Z,15.20
2018-09-21T04:26:54.180Z,15.10
2018-09-21T04:29:21.393Z,15.10
2018-09-21T04:31:48.591Z,15.10
2018-09-21T04:34:15.785Z,15.10
2018-09-21T04:36:43.016Z,15.10
2018-09-21T04:39:11.607Z,15.10
2018-09-21T04:41:39.077Z,15.10
2018-09-21T04:44:06.329Z,15.10
2018-09-21T04:46:33.524Z,15.10
2018-09-21T04:49:00.721Z,15.10
2018-09-21T04:51:27.936Z,15.10
2018-09-21T04:53:55.162Z,15.10
2018-09-21T04:56:22.378Z,15.10
2018-09-21T04:58:49.588Z,15.00
2018-09-21T05:01:16.828Z,15.00
2018-09-21T05:03:44.041Z,15.00
2018-09-21T05:06:11.252Z,14.90
2018-09-21T05:08:38.445Z,14.70
2018-09-21T05:11:05.701Z,14.80
2018-09-21T05:13:32.914Z,14.80
2018-09-21T05:16:00.110Z,14.90
2018-09-21T05:18:27.300Z,14.90
2018-09-21T05:20:54.545Z,15.00
2018-09-21T05:23:21.728Z,15.10
2018-09-21T05:25:48.952Z,15.20
2018-09-21T05:28:16.173Z,15.20
2018-09-21T05:30:43.384Z,15.30
2018-09-21T05:33:10.577Z,15.30
2018-09-21T05:35:37.812Z,15.40
2018-09-21T05:38:05.030Z,15.50
2018-09-21T05:40:32.237Z,15.50
2018-09-21T05:42:59.454Z,15.60
2018-09-21T05:45:26.656Z,15.60
2018-09-21T05:47:53.864Z,15.70
2018-09-21T05:50:21.056Z,15.80
2018-09-21T05:52:48.257Z,16.00
2018-09-21T05:55:15.451Z,16.00
2018-09-21T05:57:42.660Z,16.10
2018-09-21T06:00:09.897Z,16.10
2018-09-21T06:02:37.138Z,16.20
2018-09-21T06:05:06.982Z,16.30
2018-09-21T06:07:34.653Z,16.30
2018-09-21T06:10:02.208Z,16.40
2018-09-21T06:12:29.402Z,16.50
2018-09-21T06:14:56.646Z,16.60
2018-09-21T06:17:24.068Z,16.70
2018-09-21T06:19:51.487Z,16.90
2018-09-21T06:22:18.707Z,17.00
2018-09-21T06:24:45.916Z,17.10
2018-09-21T06:27:13.140Z,17.30
2018-09-21T06:29:40.367Z,17.40
2018-09-21T06:32:07.604Z,17.60
2018-09-21T06:34:34.808Z,17.70
2018-09-21T06:37:02.009Z,17.80
2018-09-21T06:39:29.216Z,18.00
2018-09-21T06:41:56.513Z,18.10
2018-09-21T06:44:23.711Z,18.30
2018-09-21T06:46:50.916Z,18.40
2018-09-21T06:49:18.109Z,18.40
2018-09-21T06:51:45.323Z,18.50
2018-09-21T06:54:12.637Z,18.60
2018-09-21T06:56:39.864Z,18.70
2018-09-21T06:59:07.045Z,18.80
2018-09-21T07:01:34.270Z,18.70
2018-09-21T07:04:01.487Z,18.90
2018-09-21T07:06:28.653Z,19.00
2018-09-21T07:08:55.852Z,19.20
2018-09-21T07:11:23.047Z,19.20
2018-09-21T07:13:50.360Z,19.20
2018-09-21T07:16:17.573Z,19.50
2018-09-21T07:18:44.764Z,19.50
2018-09-21T07:21:11.975Z,19.50
2018-09-21T07:23:39.190Z,19.60
2018-09-21T07:26:06.396Z,19.70
2018-09-21T07:28:33.592Z,19.80
2018-09-21T07:31:00.917Z,20.00
2018-09-21T07:33:28.020Z,20.10
2018-09-21T07:35:55.220Z,20.20
2018-09-21T07:38:22.429Z,20.40
2018-09-21T07:40:49.627Z,20.60
2018-09-21T07:43:16.805Z,20.80
2018-09-21T07:45:44.004Z,20.90
2018-09-21T07:48:11.183Z,21.10
2018-09-21T07:50:38.484Z,21.20
2018-09-21T07:53:05.644Z,21.30
2018-09-21T07:55:32.841Z,21.50
2018-09-21T07:58:00.035Z,21.60
2018-09-21T08:00:27.205Z,21.80
2018-09-21T08:02:54.417Z,21.90
2018-09-21T08:05:38.600Z,22.10
2018-09-21T08:08:06.092Z,22.20
2018-09-21T08:10:33.305Z,22.20
2018-09-21T08:13:01.221Z,22.30
2018-09-21T08:15:28.877Z,22.40
2018-09-21T08:17:56.082Z,22.40
2018-09-21T08:20:23.310Z,22.60
2018-09-21T08:22:50.577Z,22.70
2018-09-21T08:25:17.793Z,22.70
2018-09-21T08:27:44.980Z,22.80
2018-09-21T08:30:12.216Z,23.00
2018-09-21T08:32:39.437Z,23.10
2018-09-21T08:35:06.664Z,23.20
2018-09-21T08:37:34.044Z,23.50
2018-09-21T08:40:01.397Z,23.70
2018-09-21T08:42:28.588Z,23.80
2018-09-21T08:44:55.798Z,24.00
2018-09-21T08:47:23.032Z,24.10
2018-09-21T08:49:50.220Z,24.30
2018-09-21T08:52:17.400Z,24.30
2018-09-21T08:54:44.572Z,24.60
2018-09-21T08:57:11.804Z,24.80
2018-09-21T08:59:39.001Z,24.90
2018-09-21T09:02:06.213Z,24.80
2018-09-21T09:04:33.405Z,25.00
2018-09-21T09:07:00.592Z,25.10
2018-09-21T09:09:27.808Z,25.10
2018-09-21T09:11:55.041Z,24.90
2018-09-21T09:14:22.236Z,24.80
2018-09-21T09:16:49.431Z,24.80
2018-09-21T09:19:16.647Z,24.70
2018-09-21T09:21:43.856Z,24.70
2018-09-21T09:24:11.040Z,24.90
2018-09-21T09:26:38.241Z,25.00
2018-09-21T09:29:05.453Z,25.10
2018-09-21T09:31:32.653Z,25.20
2018-09-21T09:33:59.856Z,25.40
2018-09-21T09:36:27.372Z,25.40
2018-09-21T09:38:54.564Z,25.40
2018-09-21T09:41:21.772Z,25.50
2018-09-21T09:43:49.136Z,25.60
2018-09-21T09:46:16.313Z,25.80
2018-09-21T09:48:43.540Z,25.60
2018-09-21T09:51:10.697Z,25.60
2018-09-21T09:53:37.888Z,25.80
2018-09-21T09:56:05.121Z,26.00
2018-09-21T09:58:32.336Z,26.20
2018-09-21T10:00:59.521Z,26.40
2018-09-21T10:03:26.779Z,26.30
2018-09-21T10:05:53.912Z,26.40
2018-09-21T10:08:21.124Z,26.60
2018-09-21T10:10:48.349Z,26.70
2018-09-21T10:13:15.523Z,26.60
2018-09-21T10:15:42.739Z,26.50
2018-09-21T10:18:09.928Z,26.50
2018-09-21T10:20:37.143Z,26.60
2018-09-21T10:23:04.352Z,26.90
2018-09-21T10:25:31.960Z,26.90
2018-09-21T10:27:59.318Z,26.80
2018-09-21T10:30:26.400Z,27.10
2018-09-21T10:32:53.625Z,27.40
2018-09-21T10:35:20.878Z,27.40
2018-09-21T10:37:48.051Z,27.70
2018-09-21T10:40:15.492Z,28.00
2018-09-21T10:42:42.735Z,28.20
2018-09-21T10:45:09.944Z,28.10
2018-09-21T10:47:37.136Z,28.30
2018-09-21T10:50:05.216Z,28.40
2018-09-21T10:52:32.436Z,28.70
2018-09-21T10:54:59.646Z,28.90
2018-09-21T10:57:26.839Z,29.10
2018-09-21T10:59:54.037Z,29.30
2018-09-21T11:02:21.221Z,29.00
2018-09-21T11:04:48.432Z,28.60
2018-09-21T11:07:15.765Z,28.10
2018-09-21T11:09:42.846Z,27.90
2018-09-21T11:12:10.057Z,27.80
2018-09-21T11:14:37.313Z,27.70
2018-09-21T11:17:04.503Z,27.60
2018-09-21T11:19:31.710Z,27.40
2018-09-21T11:21:58.892Z,27.40
2018-09-21T11:24:26.388Z,27.50
2018-09-21T11:26:53.580Z,27.50
2018-09-21T11:29:20.761Z,27.10
2018-09-21T11:31:47.985Z,26.80
2018-09-21T11:34:15.300Z,26.80
2018-09-21T11:36:42.492Z,26.90
2018-09-21T11:39:10.428Z,27.30
2018-09-21T11:41:37.644Z,27.50
2018-09-21T11:44:04.994Z,27.70
2018-09-21T11:46:32.239Z,27.80
2018-09-21T11:48:59.436Z,27.80
2018-09-21T11:51:26.639Z,27.70
2018-09-21T11:53:53.836Z,27.70
2018-09-21T11:56:22.536Z,28.00
2018-09-21T11:58:49.812Z,28.10
2018-09-21T12:01:16.991Z,28.10
2018-09-21T12:03:44.217Z,28.10
2018-09-21T12:06:11.399Z,28.30
2018-09-21T12:08:38.596Z,28.40
2018-09-21T12:11:05.969Z,28.40
2018-09-21T12:13:33.495Z,28.10
2018-09-21T12:16:00.704Z,28.20
2018-09-21T12:18:27.891Z,28.30
2018-09-21T12:20:55.081Z,28.30
2018-09-21T12:23:22.265Z,28.20
2018-09-21T12:25:49.459Z,28.10
2018-09-21T12:28:16.660Z,28.10
2018-09-21T12:30:43.848Z,27.90
2018-09-21T12:33:12.065Z,28.30
2018-09-21T12:35:39.252Z,28.70
2018-09-21T12:38:06.538Z,29.20
2018-09-21T12:40:33.720Z,29.60
2018-09-21T12:43:00.913Z,30.10
2018-09-21T12:45:28.106Z,30.80
2018-09-21T12:47:55.318Z,30.80
2018-09-21T12:50:22.577Z,31.00
2018-09-21T12:52:49.840Z,31.30
2018-09-21T12:55:17.051Z,31.10
2018-09-21T12:57:44.258Z,30.70
2018-09-21T13:00:11.483Z,30.50
2018-09-21T13:02:39.097Z,30.30
2018-09-21T13:05:06.512Z,30.30
2018-09-21T13:07:33.692Z,30.20
2018-09-21T13:10:01.049Z,30.30
2018-09-21T13:12:28.240Z,30.40
2018-09-21T13:14:55.429Z,30.20
2018-09-21T13:17:22.893Z,30.30
2018-09-21T13:19:50.084Z,30.70
2018-09-21T13:22:17.282Z,30.80
2018-09-21T13:24:44.477Z,30.80
2018-09-21T13:27:11.676Z,31.20
2018-09-21T13:29:38.867Z,31.50
2018-09-21T13:32:06.128Z,31.60
2018-09-21T13:34:33.321Z,32.20
2018-09-21T13:37:00.501Z,32.80
2018-09-21T13:39:27.680Z,33.20
2018-09-21T13:41:54.888Z,33.10
2018-09-21T13:44:22.094Z,32.30
2018-09-21T13:46:49.287Z,31.30
2018-09-21T13:49:16.480Z,30.60
2018-09-21T13:51:43.692Z,30.60
2018-09-21T13:54:10.881Z,30.70
2018-09-21T13:56:38.055Z,29.90
2018-09-21T13:59:05.313Z,29.30
2018-09-21T14:01:32.572Z,28.70
2018-09-21T14:03:59.779Z,28.40
2018-09-21T14:06:27.015Z,28.10
2018-09-21T14:08:54.200Z,27.90
2018-09-21T14:11:21.400Z,27.50
2018-09-21T14:13:48.629Z,27.40
2018-09-21T14:16:15.859Z,27.60
2018-09-21T14:18:43.907Z,28.00
2018-09-21T14:21:11.434Z,28.50
2018-09-21T14:23:38.648Z,28.90
2018-09-21T14:26:06.045Z,29.10
2018-09-21T14:28:33.243Z,29.10
2018-09-21T14:31:00.447Z,29.40
2018-09-21T14:33:27.627Z,29.20
2018-09-21T14:35:54.827Z,28.90
2018-09-21T14:38:22.028Z,28.30
2018-09-21T14:40:49.217Z,27.80
2018-09-21T14:43:16.417Z,27.30
2018-09-21T14:45:43.625Z,27.20
2018-09-21T14:48:10.842Z,27.30
2018-09-21T14:50:38.075Z,27.30
2018-09-21T14:53:05.289Z,27.20
2018-09-21T14:55:32.460Z,27.00
2018-09-21T14:57:59.663Z,26.80
2018-09-21T15:00:26.861Z,26.60
2018-09-21T15:02:54.083Z,26.40
2018-09-21T15:05:21.281Z,26.40
2018-09-21T15:07:48.837Z,26.40
2018-09-21T15:10:16.064Z,26.60
2018-09-21T15:12:43.300Z,27.00
2018-09-21T15:15:10.493Z,27.10
2018-09-21T15:17:37.707Z,27.10
2018-09-21T15:20:04.956Z,27.30
2018-09-21T15:22:32.179Z,27.30
2018-09-21T15:24:59.358Z,27.10
2018-09-21T15:27:26.572Z,26.90
2018-09-21T15:29:53.772Z,26.40
2018-09-21T15:32:21.701Z,26.00
2018-09-21T15:34:48.894Z,25.70
2018-09-21T15:37:16.104Z,25.60
2018-09-21T15:39:43.361Z,25.50
2018-09-21T15:42:10.549Z,25.40
2018-09-21T15:44:37.737Z,25.40
2018-09-21T15:47:04.928Z,25.40
2018-09-21T15:49:32.450Z,25.40
2018-09-21T15:51:59.726Z,25.30
2018-09-21T15:54:26.900Z,25.10
2018-09-21T15:56:55.136Z,25.00
2018-09-21T15:59:22.322Z,25.00
2018-09-21T16:01:49.531Z,24.90
2018-09-21T16:04:17.189Z,24.80
2018-09-21T16:06:44.426Z,24.70
2018-09-21T16:09:11.657Z,24.60
2018-09-21T16:11:38.840Z,24.60
2018-09-21T16:14:06.891Z,24.60
2018-09-21T16:16:34.450Z,24.60
2018-09-21T16:19:01.855Z,24.40
2018-09-21T16:21:29.064Z,24.30
2018-09-21T16:23:56.252Z,24.20
2018-09-21T16:26:23.439Z,24.10
2018-09-21T16:28:50.651Z,24.10
2018-09-21T16:31:17.881Z,24.10
2018-09-21T16:33:45.066Z,23.90
2018-09-21T16:36:14.909Z,23.70
2018-09-21T16:38:42.288Z,23.90
2018-09-21T16:41:09.482Z,23.70
2018-09-21T16:43:36.728Z,23.60
2018-09-21T16:46:04.232Z,23.50
2018-09-21T16:48:31.708Z,23.30
2018-09-21T16:50:58.972Z,23.30
2018-09-21T16:53:26.137Z,23.20
2018-09-21T16:55:53.353Z,23.00
2018-09-21T16:58:20.740Z,23.00
2018-09-21T17:00:48.288Z,22.90
2018-09-21T17:03:15.514Z,23.00
2018-09-21T17:05:42.703Z,23.00
2018-09-21T17:08:09.896Z,22.90
2018-09-21T17:10:37.088Z,22.80
2018-09-21T17:13:04.312Z,22.70
2018-09-21T17:15:31.529Z,22.60
2018-09-21T17:17:58.720Z,22.60
2018-09-21T17:20:25.916Z,22.60
2018-09-21T17:22:53.121Z,22.50
2018-09-21T17:25:20.316Z,22.40
2018-09-21T17:27:47.500Z,22.30
2018-09-21T17:30:14.676Z,22.40
2018-09-21T17:32:41.879Z,22.20
2018-09-21T17:35:09.068Z,22.10
2018-09-21T17:37:36.342Z,22.00
2018-09-21T17:40:03.547Z,21.90
2018-09-21T17:42:30.856Z,21.70
2018-09-21T17:44:58.208Z,21.60
2018-09-21T17:47:25.432Z,21.50
2018-09-21T17:49:52.888Z,21.60
2018-09-21T17:52:20.116Z,21.60
2018-09-21T17:54:47.368Z,21.40
2018-09-21T17:57:14.552Z,21.20
2018-09-21T17:59:41.817Z,21.10
2018-09-21T18:02:09.072Z,20.90
2018-09-21T18:04:36.324Z,20.90
2018-09-21T18:07:03.679Z,20.90
2018-09-21T18:09:30.897Z,20.70
2018-09-21T18:11:58.207Z,20.60
2018-09-21T18:14:25.417Z,20.50
2018-09-21T18:16:52.688Z,20.30
2018-09-21T18:19:20.104Z,20.00
2018-09-21T18:21:47.305Z,19.90
2018-09-21T18:24:14.514Z,19.80
2018-09-21T18:26:42.485Z,19.80
2018-09-21T18:29:09.696Z,19.80
2018-09-21T18:31:36.958Z,19.80
2018-09-21T18:34:04.132Z,19.90
2018-09-21T18:36:31.344Z,19.90
2018-09-21T18:38:59.565Z,19.90
2018-09-21T18:41:26.769Z,19.90
2018-09-21T18:43:53.988Z,20.00
2018-09-21T18:46:21.217Z,19.90
2018-09-21T18:48:48.421Z,19.90
2018-09-21T18:51:15.620Z,20.00
2018-09-21T18:53:42.829Z,19.90
2018-09-21T18:56:10.053Z,19.80
2018-09-21T18:58:38.284Z,19.60
2018-09-21T19:01:05.666Z,19.30
2018-09-21T19:03:33.145Z,19.10
2018-09-21T19:06:00.399Z,18.80
2018-09-21T19:08:27.579Z,18.70
2018-09-21T19:10:54.823Z,18.60
2018-09-21T19:13:22.079Z,18.60
2018-09-21T19:15:49.279Z,18.60
2018-09-21T19:18:16.509Z,18.40
2018-09-21T19:20:43.719Z,18.40
2018-09-21T19:23:10.939Z,18.50
2018-09-21T19:25:38.194Z,18.30
2018-09-21T19:28:05.469Z,18.10
2018-09-21T19:30:32.684Z,17.70
2018-09-21T19:32:59.963Z,17.50
2018-09-21T19:35:27.160Z,17.20
2018-09-21T19:37:54.444Z,16.70
2018-09-21T19:40:21.845Z,16.40
2018-09-21T19:42:49.246Z,16.00
2018-09-21T19:45:16.399Z,15.60
2018-09-21T19:47:43.569Z,15.30
2018-09-21T19:50:10.816Z,15.20
2018-09-21T19:52:38.049Z,14.90
2018-09-21T19:55:05.553Z,14.60
2018-09-21T19:57:32.784Z,14.40
2018-09-21T20:00:00.029Z,14.00
2018-09-21T20:02:27.261Z,13.70
2018-09-21T20:04:54.597Z,13.40
2018-09-21T20:07:21.796Z,13.30
2018-09-21T20:09:49.020Z,13.10
2018-09-21T20:12:16.225Z,13.00
2018-09-21T20:14:43.444Z,12.90
2018-09-21T20:17:10.661Z,12.80
2018-09-21T20:19:37.904Z,12.60
2018-09-21T20:22:06.945Z,12.50
2018-09-21T20:24:34.231Z,12.40
2018-09-21T20:27:01.448Z,12.30
2018-09-21T20:29:28.648Z,12.30
2018-09-21T20:32:02.601Z,12.20
2018-09-21T20:34:29.857Z,12.00
2018-09-21T20:36:57.133Z,12.00
2018-09-21T20:39:24.348Z,11.80
2018-09-21T20:41:51.573Z,11.90
2018-09-21T20:44:18.791Z,11.80
2018-09-21T20:46:46.043Z,11.70
2018-09-21T20:49:13.268Z,11.70
2018-09-21T20:51:41.534Z,11.70
2018-09-21T20:54:08.756Z,11.70
2018-09-21T20:56:35.964Z,11.70
2018-09-21T20:59:03.175Z,11.70
2018-09-21T21:01:30.376Z,11.70
2018-09-21T21:03:57.752Z,11.70
2018-09-21T21:06:24.997Z,11.70
2018-09-21T21:08:52.204Z,11.60
2018-09-21T21:11:19.419Z,11.60
2018-09-21T21:13:46.640Z,11.60
2018-09-21T21:16:13.996Z,11.70
2018-09-21T21:18:41.996Z,11.80
2018-09-21T21:21:09.218Z,11.80
2018-09-21T21:23:36.428Z,11.70
2018-09-21T21:26:03.648Z,11.80
2018-09-21T21:28:30.886Z,11.80
2018-09-21T21:30:58.145Z,11.80
2018-09-21T21:33:25.344Z,11.80
2018-09-21T21:35:52.564Z,11.90
2018-09-21T21:38:19.794Z,12.10
2018-09-21T21:40:47.319Z,12.10
2018-09-21T21:43:14.581Z,12.00
2018-09-21T21:45:41.797Z,12.10
2018-09-21T21:48:08.993Z,12.30
2018-09-21T21:50:36.204Z,12.10
2018-09-21T21:53:03.448Z,12.10
2018-09-21T21:55:30.651Z,12.00
2018-09-21T21:57:57.940Z,12.00
2018-09-21T22:00:29.759Z,12.10
2018-09-21T22:02:57.185Z,12.10
2018-09-21T22:05:24.403Z,12.10
2018-09-21T22:07:51.607Z,12.00
2018-09-21T22:10:18.804Z,12.00
2018-09-21T22:12:51.637Z,12.00
2018-09-21T22:15:19.449Z,12.20
2018-09-21T22:17:47.797Z,12.10
2018-09-21T22:20:15.004Z,12.10
2018-09-21T22:22:42.220Z,12.00
2018-09-21T22:25:10.160Z,12.00
2018-09-21T22:27:37.392Z,11.90
2018-09-21T22:30:04.863Z,12.00
2018-09-21T22:32:32.128Z,12.10
2018-09-21T22:34:59.340Z,12.10
2018-09-21T22:37:27.153Z,12.10
2018-09-21T22:39:54.380Z,12.10
2018-09-21T22:42:21.639Z,11.80
2018-09-21T22:44:48.903Z,11.80
2018-09-21T22:47:16.258Z,11.80
2018-09-21T22:49:43.481Z,11.70
2018-09-21T22:52:10.699Z,11.70
2018-09-21T22:54:37.932Z,11.60
2018-09-21T22:57:05.149Z,11.60
2018-09-21T22:59:32.351Z,11.60
2018-09-21T23:01:59.617Z,11.40
2018-09-21T23:04:27.827Z,11.50
2018-09-21T23:06:55.020Z,11.40
2018-09-21T23:09:22.223Z,11.50
2018-09-21T23:11:49.448Z,11.40
2018-09-21T23:14:16.680Z,11.50
2018-09-21T23:16:43.908Z,11.60
2018-09-21T23:19:11.108Z,11.60
2018-09-21T23:21:38.626Z,11.50
2018-09-21T23:24:05.985Z,11.50
2018-09-21T23:26:33.177Z,11.40
2018-09-21T23:29:00.388Z,11.40
2018-09-21T23:31:27.607Z,11.50
2018-09-21T23:33:54.853Z,11.40
2018-09-21T23:36:22.456Z,11.50
2018-09-21T23:38:49.995Z,11.50
2018-09-21T23:41:17.229Z,11.50
2018-09-21T23:43:44.590Z,11.50
2018-09-21T23:46:11.915Z,11.40
2018-09-21T23:48:39.201Z,11.40
2018-09-21T23:51:07.055Z,11.50
2018-09-21T23:53:34.260Z,11.50
2018-09-21T23:56:01.485Z,11.40
2018-09-21T23:58:28.708Z,11.40
